createdAt,value
2019-05-03T00:02:43.429Z,46.71
2019-05-03T00:05:22.736Z,44.69
2019-05-03T00:07:54.720Z,45.67
2019-05-03T00:10:24.559Z,46.71
2019-05-03T00:12:54.189Z,47.69
2019-05-03T00:15:58.195Z,48.24
2019-05-03T00:18:28.053Z,48.74
2019-05-03T00:20:57.576Z,48.67
2019-05-03T00:23:27.392Z,49.06
2019-05-03T00:25:57.137Z,49.19
2019-05-03T00:28:26.842Z,50.50
2019-05-03T00:30:56.326Z,51.39
2019-05-03T00:33:26.322Z,51.18
2019-05-03T00:36:22.429Z,47.78
2019-05-03T00:38:54.093Z,46.83
2019-05-03T00:41:23.763Z,47.78
2019-05-03T00:43:53.606Z,48.86
2019-05-03T00:46:23.429Z,49.15
2019-05-03T00:48:53.260Z,50.20
2019-05-03T00:51:22.849Z,48.72
2019-05-03T00:53:53.039Z,49.75
2019-05-03T00:56:23.074Z,49.93
2019-05-03T00:58:58.659Z,50.22
2019-05-03T01:01:28.279Z,52.08
2019-05-03T01:03:58.043Z,51.63
2019-05-03T01:06:27.952Z,51.33
2019-05-03T01:08:57.832Z,52.34
2019-05-03T01:11:27.490Z,53.08
2019-05-03T01:13:57.146Z,53.23
2019-05-03T01:16:26.927Z,51.99
2019-05-03T01:18:56.800Z,52.82
2019-05-03T01:21:26.514Z,54.01
2019-05-03T01:23:56.092Z,53.76
2019-05-03T01:26:25.786Z,54.83
2019-05-03T01:28:55.550Z,54.67
2019-05-03T01:31:25.346Z,54.74
2019-05-03T01:33:54.914Z,55.03
2019-05-03T01:36:24.544Z,54.53
2019-05-03T01:38:54.369Z,53.68
2019-05-03T01:41:24.327Z,53.98
2019-05-03T01:43:54.054Z,55.57
2019-05-03T01:46:24.048Z,55.15
2019-05-03T01:49:15.249Z,55.56
2019-05-03T01:52:02.262Z,54.84
2019-05-03T01:54:32.263Z,54.97
2019-05-03T01:57:02.518Z,55.50
2019-05-03T01:59:32.569Z,55.59
2019-05-03T02:02:23.076Z,55.57
2019-05-03T02:05:23.845Z,55.79
2019-05-03T02:07:53.632Z,55.83
2019-05-03T02:10:23.417Z,56.93
2019-05-03T02:12:53.228Z,57.22
2019-05-03T02:15:22.975Z,57.10
2019-05-03T02:17:52.391Z,58.22
2019-05-03T02:20:22.008Z,57.31
2019-05-03T02:22:52.282Z,57.14
2019-05-03T02:25:21.896Z,56.08
2019-05-03T02:27:52.716Z,56.52
2019-05-03T02:30:24.974Z,56.72
2019-05-03T02:32:53.907Z,56.27
2019-05-03T02:35:23.378Z,56.26
2019-05-03T02:37:54.500Z,56.74
2019-05-03T02:40:24.906Z,56.57
2019-05-03T02:43:10.562Z,56.43
2019-05-03T02:45:49.863Z,56.42
2019-05-03T02:48:29.761Z,56.12
2019-05-03T02:50:59.452Z,57.23
2019-05-03T02:53:28.870Z,56.97
2019-05-03T02:56:13.978Z,57.18
2019-05-03T02:58:29.584Z,57.14
2019-05-03T03:01:01.208Z,57.72
2019-05-03T03:03:30.944Z,58.19
2019-05-03T03:06:01.994Z,57.34
2019-05-03T03:08:33.632Z,57.51
2019-05-03T03:11:06.244Z,57.81
2019-05-03T03:13:37.989Z,58.53
2019-05-03T03:16:08.941Z,59.05
2019-05-03T03:18:40.628Z,59.45
2019-05-03T03:21:16.240Z,58.46
2019-05-03T03:24:09.705Z,58.08
2019-05-03T03:26:43.103Z,56.25
2019-05-03T03:29:16.059Z,55.34
2019-05-03T03:32:29.090Z,53.37
2019-05-03T03:35:22.627Z,51.59
2019-05-03T03:37:55.751Z,52.18
2019-05-03T03:40:25.647Z,50.62
2019-05-03T03:42:57.110Z,50.50
2019-05-03T03:45:27.132Z,51.03
2019-05-03T03:47:57.441Z,50.17
2019-05-03T03:50:27.675Z,51.71
2019-05-03T03:52:59.319Z,51.66
2019-05-03T03:55:32.094Z,53.61
2019-05-03T03:58:02.323Z,53.62
2019-05-03T04:00:32.643Z,56.27
2019-05-03T04:03:02.544Z,55.52
2019-05-03T04:05:35.579Z,56.01
2019-05-03T04:08:05.717Z,56.89
2019-05-03T04:10:35.928Z,57.28
2019-05-03T04:13:07.846Z,57.77
2019-05-03T04:15:56.168Z,56.46
2019-05-03T04:18:45.670Z,56.67
2019-05-03T04:21:16.187Z,57.21
2019-05-03T04:23:46.562Z,58.01
2019-05-03T04:26:16.720Z,58.16
2019-05-03T04:28:47.475Z,57.34
2019-05-03T04:31:17.104Z,56.68
2019-05-03T04:33:46.624Z,57.69
2019-05-03T04:36:16.404Z,57.68
2019-05-03T04:38:46.260Z,57.38
2019-05-03T04:41:16.117Z,57.70
2019-05-03T04:43:46.062Z,57.88
2019-05-03T04:46:25.887Z,58.74
2019-05-03T04:48:56.181Z,58.12
2019-05-03T04:51:26.309Z,58.12
2019-05-03T04:54:16.410Z,58.24
2019-05-03T04:56:46.523Z,57.27
2019-05-03T04:59:16.729Z,56.66
2019-05-03T05:01:46.510Z,56.30
2019-05-03T05:04:16.334Z,56.07
2019-05-03T05:06:46.109Z,55.09
2019-05-03T05:09:15.939Z,54.96
2019-05-03T05:11:46.123Z,54.60
2019-05-03T05:14:15.866Z,54.26
2019-05-03T05:16:46.651Z,53.53
2019-05-03T05:19:20.158Z,53.32
2019-05-03T05:21:54.930Z,52.84
2019-05-03T05:24:25.588Z,52.49
2019-05-03T05:27:14.701Z,52.29
2019-05-03T05:29:45.055Z,51.02
2019-05-03T05:32:14.570Z,50.63
2019-05-03T05:34:46.051Z,50.77
2019-05-03T05:37:15.804Z,49.26
2019-05-03T05:39:45.494Z,49.48
2019-05-03T05:42:15.018Z,49.46
2019-05-03T05:44:45.498Z,48.17
2019-05-03T05:47:37.167Z,48.55
2019-05-03T05:50:10.475Z,49.65
2019-05-03T05:52:40.250Z,48.69
2019-05-03T05:55:20.430Z,48.79
2019-05-03T05:58:05.244Z,48.41
2019-05-03T06:00:48.770Z,48.19
2019-05-03T06:03:18.583Z,47.73
2019-05-03T06:05:48.164Z,47.06
2019-05-03T06:08:31.502Z,45.60
2019-05-03T06:11:25.918Z,46.03
2019-05-03T06:14:02.579Z,44.21
2019-05-03T06:16:47.542Z,44.83
2019-05-03T06:19:25.251Z,44.81
2019-05-03T06:22:19.978Z,44.72
2019-05-03T06:24:55.308Z,45.15
2019-05-03T06:27:32.083Z,44.03
2019-05-03T06:30:09.026Z,43.85
2019-05-03T06:32:40.373Z,44.18
2019-05-03T06:35:10.538Z,43.50
2019-05-03T06:37:45.687Z,42.56
2019-05-03T06:40:15.429Z,42.89
2019-05-03T06:42:52.344Z,42.60
2019-05-03T06:45:16.882Z,42.24
2019-05-03T06:47:49.942Z,41.84
2019-05-03T06:50:19.449Z,41.94
2019-05-03T06:52:49.848Z,41.36
2019-05-03T06:55:19.564Z,40.75
2019-05-03T06:57:49.896Z,40.37
2019-05-03T07:00:37.683Z,38.68
2019-05-03T07:03:17.217Z,38.19
2019-05-03T07:06:04.717Z,38.83
2019-05-03T07:08:56.458Z,38.87
2019-05-03T07:11:26.259Z,39.27
2019-05-03T07:13:55.926Z,38.69
2019-05-03T07:16:25.551Z,38.58
2019-05-03T07:18:58.382Z,36.21
2019-05-03T07:21:26.320Z,36.12
2019-05-03T07:23:56.158Z,36.14
2019-05-03T07:26:26.033Z,37.28
2019-05-03T07:28:55.823Z,37.36
2019-05-03T07:31:25.698Z,36.78
2019-05-03T07:33:55.288Z,33.30
2019-05-03T07:36:28.184Z,34.32
2019-05-03T07:38:56.240Z,34.20
2019-05-03T07:41:27.263Z,34.52
2019-05-03T07:43:57.119Z,33.11
2019-05-03T07:46:26.928Z,33.34
2019-05-03T07:48:56.768Z,32.96
2019-05-03T07:51:26.170Z,32.67
2019-05-03T07:53:55.797Z,33.93
2019-05-03T07:56:30.282Z,33.68
2019-05-03T07:59:04.156Z,32.02
2019-05-03T08:01:40.215Z,32.27
2019-05-03T08:04:09.973Z,32.42
2019-05-03T08:06:39.689Z,31.96
2019-05-03T08:09:09.982Z,31.96
2019-05-03T08:11:39.585Z,32.22
2019-05-03T08:14:09.450Z,30.07
2019-05-03T08:16:39.019Z,29.89
2019-05-03T08:19:08.526Z,32.14
2019-05-03T08:21:38.997Z,32.37
2019-05-03T08:24:09.077Z,32.21
2019-05-03T08:26:38.894Z,32.05
2019-05-03T08:29:16.303Z,32.00
2019-05-03T08:32:05.100Z,32.61
2019-05-03T08:34:39.767Z,31.97
2019-05-03T08:37:31.627Z,31.79
2019-05-03T08:40:01.422Z,31.58
2019-05-03T08:42:30.939Z,31.25
2019-05-03T08:45:00.354Z,30.10
2019-05-03T08:47:30.009Z,29.65
2019-05-03T08:49:59.693Z,28.97
2019-05-03T08:52:29.202Z,27.43
2019-05-03T08:54:58.833Z,26.02
2019-05-03T08:57:28.438Z,24.69
2019-05-03T08:59:57.984Z,22.85
2019-05-03T09:02:27.787Z,21.92
2019-05-03T09:04:57.192Z,19.85
2019-05-03T09:07:26.861Z,19.34
2019-05-03T09:10:05.520Z,17.29
2019-05-03T09:12:52.984Z,16.42
2019-05-03T09:15:24.539Z,16.11
2019-05-03T09:17:55.272Z,15.71
2019-05-03T09:20:25.236Z,15.26
2019-05-03T09:22:55.078Z,14.26
2019-05-03T09:25:24.899Z,13.57
2019-05-03T09:27:55.243Z,12.26
2019-05-03T09:30:25.222Z,12.85
2019-05-03T09:32:55.715Z,11.53
2019-05-03T09:35:32.144Z,11.02
2019-05-03T09:37:56.707Z,10.67
2019-05-03T09:40:26.502Z,10.60
2019-05-03T09:42:56.274Z,9.34
2019-05-03T09:45:25.886Z,8.72
2019-05-03T09:47:55.769Z,8.89
2019-05-03T09:50:25.168Z,8.28
2019-05-03T09:52:55.530Z,8.68
2019-05-03T09:55:35.352Z,8.48
2019-05-03T09:58:05.504Z,8.71
2019-05-03T10:00:35.173Z,8.82
2019-05-03T10:03:05.697Z,8.29
2019-05-03T10:05:35.447Z,8.02
2019-05-03T10:08:05.454Z,6.99
2019-05-03T10:10:53.294Z,7.08
2019-05-03T10:13:23.840Z,6.56
2019-05-03T10:15:54.944Z,7.08
2019-05-03T10:18:25.442Z,7.09
2019-05-03T10:20:56.228Z,7.58
2019-05-03T10:23:39.411Z,7.49
2019-05-03T10:26:09.300Z,7.61
2019-05-03T10:28:39.159Z,6.88
2019-05-03T10:31:08.840Z,7.19
2019-05-03T10:33:45.830Z,7.10
2019-05-03T10:36:15.662Z,6.68
2019-05-03T10:38:45.914Z,5.88
2019-05-03T10:41:16.068Z,6.02
2019-05-03T10:43:45.730Z,7.26
2019-05-03T10:46:15.953Z,7.55
2019-05-03T10:48:45.771Z,7.58
2019-05-03T10:51:15.972Z,7.17
2019-05-03T10:53:48.463Z,7.01
2019-05-03T10:56:23.145Z,7.25
2019-05-03T10:59:06.158Z,7.47
2019-05-03T11:02:07.103Z,8.39
2019-05-03T11:04:36.963Z,8.63
2019-05-03T11:07:06.605Z,7.40
2019-05-03T11:09:48.526Z,6.82
2019-05-03T11:12:07.880Z,7.26
2019-05-03T11:14:37.617Z,7.47
2019-05-03T11:17:07.457Z,6.89
2019-05-03T11:19:37.195Z,6.94
2019-05-03T11:22:06.950Z,6.85
2019-05-03T11:24:36.654Z,6.94
2019-05-03T11:27:11.195Z,6.66
2019-05-03T11:29:40.730Z,6.66
2019-05-03T11:32:16.554Z,6.61
2019-05-03T11:34:52.592Z,6.56
2019-05-03T11:37:45.349Z,6.46
2019-05-03T11:40:15.717Z,6.20
2019-05-03T11:42:45.570Z,6.36
2019-05-03T11:45:15.865Z,6.70
2019-05-03T11:47:45.907Z,7.76
2019-05-03T11:50:15.970Z,8.35
2019-05-03T11:52:47.120Z,7.84
2019-05-03T11:55:16.937Z,8.09
2019-05-03T11:57:46.660Z,7.80
2019-05-03T12:00:22.779Z,8.22
2019-05-03T12:03:02.163Z,7.96
2019-05-03T12:05:32.119Z,7.92
2019-05-03T12:08:01.805Z,8.68
2019-05-03T12:10:48.450Z,9.13
2019-05-03T12:13:15.915Z,9.15
2019-05-03T12:15:45.453Z,8.40
2019-05-03T12:18:16.665Z,7.50
2019-05-03T12:20:48.058Z,8.72
2019-05-03T12:23:18.876Z,8.03
2019-05-03T12:25:49.624Z,8.06
2019-05-03T12:28:19.971Z,7.89
2019-05-03T12:30:49.376Z,7.80
2019-05-03T12:33:18.938Z,7.39
2019-05-03T12:35:48.644Z,7.73
2019-05-03T12:38:18.286Z,6.85
2019-05-03T12:40:47.803Z,8.56
2019-05-03T12:43:17.680Z,8.73
2019-05-03T12:45:47.419Z,8.73
2019-05-03T12:48:17.297Z,8.59
2019-05-03T12:50:47.600Z,8.61
2019-05-03T12:53:17.678Z,8.80
2019-05-03T12:55:47.482Z,8.46
2019-05-03T12:58:17.319Z,8.39
2019-05-03T13:01:05.084Z,8.35
2019-05-03T13:03:38.170Z,8.25
2019-05-03T13:06:07.840Z,8.30
2019-05-03T13:08:42.001Z,8.15
2019-05-03T13:11:11.972Z,8.01
2019-05-03T13:13:41.381Z,8.19
2019-05-03T13:16:15.266Z,8.02
2019-05-03T13:18:45.844Z,7.95
2019-05-03T13:21:15.637Z,7.50
2019-05-03T13:23:45.435Z,7.96
2019-05-03T13:26:15.158Z,8.78
2019-05-03T13:28:45.689Z,8.74
2019-05-03T13:31:16.225Z,9.33
2019-05-03T13:33:45.773Z,10.48
2019-05-03T13:36:15.633Z,9.70
2019-05-03T13:38:45.346Z,10.33
2019-05-03T13:41:14.964Z,10.28
2019-05-03T13:43:45.438Z,10.49
2019-05-03T13:46:15.726Z,10.46
2019-05-03T13:48:48.836Z,10.13
2019-05-03T13:51:16.541Z,10.76
2019-05-03T13:53:46.265Z,12.45
2019-05-03T13:56:16.114Z,13.07
2019-05-03T13:58:45.739Z,13.92
2019-05-03T14:01:15.163Z,14.70
2019-05-03T14:03:45.257Z,15.51
2019-05-03T14:06:15.196Z,15.60
2019-05-03T14:08:45.574Z,16.43
2019-05-03T14:11:15.589Z,17.17
2019-05-03T14:13:45.668Z,17.25
2019-05-03T14:16:15.417Z,18.09
2019-05-03T14:18:47.168Z,17.52
2019-05-03T14:21:21.821Z,17.91
2019-05-03T14:24:09.979Z,18.53
2019-05-03T14:26:40.394Z,18.58
2019-05-03T14:29:09.817Z,18.06
2019-05-03T14:31:39.713Z,18.06
2019-05-03T14:34:09.559Z,19.15
2019-05-03T14:36:39.098Z,19.39
2019-05-03T14:39:10.420Z,19.06
2019-05-03T14:41:39.970Z,19.17
2019-05-03T14:44:09.493Z,19.42
2019-05-03T14:46:39.302Z,19.95
2019-05-03T14:49:09.173Z,20.66
2019-05-03T14:51:38.739Z,20.17
2019-05-03T14:54:09.300Z,20.13
2019-05-03T14:56:47.753Z,21.63
2019-05-03T14:59:48.667Z,20.65
2019-05-03T15:02:24.606Z,21.32
2019-05-03T15:04:54.800Z,22.12
2019-05-03T15:07:25.530Z,22.29
2019-05-03T15:09:55.480Z,22.77
2019-05-03T15:12:25.284Z,23.39
2019-05-03T15:14:55.058Z,23.92
2019-05-03T15:17:24.813Z,24.40
2019-05-03T15:19:54.833Z,24.78
2019-05-03T15:22:25.329Z,25.27
2019-05-03T15:24:55.241Z,26.17
2019-05-03T15:27:25.042Z,26.10
2019-05-03T15:29:55.565Z,26.17
2019-05-03T15:32:25.271Z,27.25
2019-05-03T15:34:55.457Z,26.37
2019-05-03T15:37:25.566Z,26.57
2019-05-03T15:39:55.133Z,26.61
2019-05-03T15:42:25.785Z,26.68
2019-05-03T15:45:25.105Z,26.65
2019-05-03T15:48:28.762Z,27.14
2019-05-03T15:50:58.172Z,27.25
2019-05-03T15:53:27.855Z,28.04
2019-05-03T15:55:57.525Z,28.37
2019-05-03T15:58:27.334Z,28.51
2019-05-03T16:00:57.075Z,28.71
2019-05-03T16:03:26.682Z,29.27
2019-05-03T16:05:56.222Z,29.17
2019-05-03T16:08:25.755Z,29.83
2019-05-03T16:10:55.548Z,29.61
2019-05-03T16:13:25.427Z,29.97
2019-05-03T16:15:55.472Z,30.08
2019-05-03T16:18:24.870Z,30.33
2019-05-03T16:20:54.868Z,30.90
2019-05-03T16:23:25.133Z,30.53
2019-05-03T16:25:54.685Z,30.61
2019-05-03T16:28:34.410Z,30.80
2019-05-03T16:31:08.186Z,31.07
2019-05-03T16:33:38.010Z,30.56
2019-05-03T16:36:07.530Z,31.41
2019-05-03T16:38:37.393Z,31.19
2019-05-03T16:41:07.215Z,31.39
2019-05-03T16:43:37.145Z,31.35
2019-05-03T16:46:07.207Z,31.80
2019-05-03T16:48:36.718Z,31.82
2019-05-03T16:51:06.414Z,32.22
2019-05-03T16:53:35.928Z,32.44
2019-05-03T16:56:05.907Z,32.71
2019-05-03T16:58:35.687Z,32.39
2019-05-03T17:01:05.495Z,32.25
2019-05-03T17:03:42.798Z,33.06
2019-05-03T17:06:26.624Z,32.83
2019-05-03T17:09:14.553Z,33.32
2019-05-03T17:11:45.912Z,33.05
2019-05-03T17:14:15.539Z,33.16
2019-05-03T17:16:45.126Z,33.69
2019-05-03T17:19:17.138Z,33.70
2019-05-03T17:21:46.330Z,33.80
2019-05-03T17:24:16.486Z,33.47
2019-05-03T17:26:46.331Z,33.73
2019-05-03T17:29:16.124Z,33.83
2019-05-03T17:31:45.909Z,34.03
2019-05-03T17:34:15.670Z,34.11
2019-05-03T17:36:45.373Z,34.37
2019-05-03T17:39:17.225Z,33.25
2019-05-03T17:42:01.804Z,31.10
2019-05-03T17:44:37.543Z,30.64
2019-05-03T17:47:07.297Z,29.43
2019-05-03T17:49:37.473Z,30.56
2019-05-03T17:52:26.190Z,29.28
2019-05-03T17:55:21.424Z,28.54
2019-05-03T17:58:19.669Z,28.67
2019-05-03T18:01:23.974Z,28.42
2019-05-03T18:04:06.118Z,29.07
2019-05-03T18:06:31.343Z,28.37
2019-05-03T18:09:16.308Z,28.94
2019-05-03T18:11:48.440Z,29.07
2019-05-03T18:14:18.112Z,28.65
2019-05-03T18:16:47.524Z,29.24
2019-05-03T18:19:17.355Z,28.34
2019-05-03T18:21:47.149Z,28.41
2019-05-03T18:24:16.864Z,28.82
2019-05-03T18:26:46.711Z,29.69
2019-05-03T18:29:16.269Z,29.00
2019-05-03T18:31:46.005Z,28.98
2019-05-03T18:34:19.712Z,30.04
2019-05-03T18:36:47.246Z,29.74
2019-05-03T18:39:18.015Z,29.88
2019-05-03T18:41:47.916Z,30.25
2019-05-03T18:44:36.302Z,30.53
2019-05-03T18:47:08.830Z,30.49
2019-05-03T18:49:39.750Z,30.96
2019-05-03T18:52:09.707Z,30.87
2019-05-03T18:54:39.721Z,31.05
2019-05-03T18:57:09.289Z,31.08
2019-05-03T18:59:39.082Z,31.59
2019-05-03T19:02:10.485Z,31.31
2019-05-03T19:04:51.814Z,30.73
2019-05-03T19:07:39.383Z,30.62
2019-05-03T19:10:30.932Z,30.29
2019-05-03T19:13:14.833Z,29.83
2019-05-03T19:15:44.771Z,29.83
2019-05-03T19:18:27.368Z,29.73
2019-05-03T19:20:57.501Z,30.09
2019-05-03T19:23:27.366Z,30.29
2019-05-03T19:25:57.304Z,30.18
2019-05-03T19:28:27.247Z,30.38
2019-05-03T19:30:56.692Z,30.81
2019-05-03T19:33:26.155Z,31.03
2019-05-03T19:35:56.079Z,30.84
2019-05-03T19:38:25.638Z,31.04
2019-05-03T19:40:55.062Z,30.78
2019-05-03T19:43:27.033Z,30.72
2019-05-03T19:45:56.133Z,30.60
2019-05-03T19:48:25.915Z,30.35
2019-05-03T19:50:55.702Z,30.04
2019-05-03T19:53:47.416Z,29.62
2019-05-03T19:56:18.376Z,29.59
2019-05-03T19:58:55.251Z,29.85
2019-05-03T20:01:44.031Z,30.37
2019-05-03T20:04:41.829Z,30.31
2019-05-03T20:07:36.665Z,30.51
2019-05-03T20:10:06.893Z,30.48
2019-05-03T20:12:36.786Z,30.26
2019-05-03T20:15:06.945Z,30.16
2019-05-03T20:17:36.634Z,30.09
2019-05-03T20:20:06.523Z,30.08
2019-05-03T20:22:36.299Z,29.80
2019-05-03T20:25:06.212Z,29.97
2019-05-03T20:27:36.056Z,30.31
2019-05-03T20:30:06.947Z,30.62
2019-05-03T20:32:36.876Z,32.14
2019-05-03T20:35:14.879Z,33.58
2019-05-03T20:37:38.907Z,34.21
2019-05-03T20:40:08.826Z,35.05
2019-05-03T20:42:54.889Z,35.59
2019-05-03T20:45:30.138Z,36.06
2019-05-03T20:48:00.213Z,36.26
2019-05-03T20:50:29.865Z,37.03
2019-05-03T20:52:59.381Z,37.70
2019-05-03T20:55:29.077Z,38.12
2019-05-03T20:57:58.613Z,38.53
2019-05-03T21:00:28.412Z,38.89
2019-05-03T21:02:57.857Z,39.41
2019-05-03T21:05:31.244Z,39.74
2019-05-03T21:07:59.026Z,40.20
2019-05-03T21:10:28.816Z,40.86
2019-05-03T21:12:58.579Z,40.66
2019-05-03T21:15:49.932Z,40.88
2019-05-03T21:18:41.360Z,40.58
2019-05-03T21:21:24.741Z,40.15
2019-05-03T21:23:57.319Z,39.77
2019-05-03T21:26:27.037Z,39.60
2019-05-03T21:28:56.568Z,39.36
2019-05-03T21:31:26.092Z,38.71
2019-05-03T21:33:55.754Z,38.48
2019-05-03T21:36:25.623Z,38.64
2019-05-03T21:38:55.357Z,38.46
2019-05-03T21:41:25.110Z,39.15
2019-05-03T21:43:54.671Z,39.70
2019-05-03T21:46:37.304Z,39.96
2019-05-03T21:49:11.633Z,40.17
2019-05-03T21:51:41.043Z,40.79
2019-05-03T21:54:10.573Z,41.42
2019-05-03T21:56:40.080Z,42.16
2019-05-03T21:59:09.547Z,42.21
2019-05-03T22:01:42.746Z,43.19
2019-05-03T22:04:12.293Z,43.84
2019-05-03T22:06:41.814Z,43.91
2019-05-03T22:09:11.429Z,43.91
2019-05-03T22:11:41.166Z,44.00
2019-05-03T22:14:17.895Z,43.80
2019-05-03T22:17:06.544Z,44.62
2019-05-03T22:19:36.236Z,44.74
2019-05-03T22:22:25.419Z,42.94
2019-05-03T22:24:56.806Z,42.60
2019-05-03T22:27:31.472Z,43.51
2019-05-03T22:30:00.916Z,43.56
2019-05-03T22:32:30.658Z,42.97
2019-05-03T22:35:00.355Z,43.13
2019-05-03T22:37:30.166Z,43.46
2019-05-03T22:39:59.661Z,44.15
2019-05-03T22:42:29.092Z,43.69
2019-05-03T22:44:58.775Z,43.64
2019-05-03T22:47:28.477Z,43.67
2019-05-03T22:49:57.913Z,43.74
2019-05-03T22:52:27.371Z,44.62
2019-05-03T22:54:56.832Z,44.38
2019-05-03T22:57:26.269Z,45.17
2019-05-03T22:59:56.910Z,45.63
2019-05-03T23:02:26.622Z,45.52
2019-05-03T23:04:56.047Z,45.61
2019-05-03T23:07:25.492Z,44.43
2019-05-03T23:09:55.234Z,45.06
2019-05-03T23:12:25.050Z,44.30
2019-05-03T23:14:55.141Z,45.68
2019-05-03T23:17:25.362Z,45.24
2019-05-03T23:20:00.082Z,45.55
2019-05-03T23:22:31.532Z,45.88
2019-05-03T23:25:01.246Z,46.37
2019-05-03T23:27:31.020Z,46.71
2019-05-03T23:30:00.579Z,45.69
2019-05-03T23:32:30.196Z,47.04
2019-05-03T23:34:59.976Z,46.88
2019-05-03T23:37:29.708Z,47.38
2019-05-03T23:39:59.619Z,46.78
2019-05-03T23:42:29.380Z,47.11
2019-05-03T23:44:59.037Z,48.11
2019-05-03T23:47:41.882Z,46.61
2019-05-03T23:50:15.487Z,47.60
2019-05-03T23:52:45.290Z,48.04
2019-05-03T23:55:45.980Z,48.35
2019-05-03T23:58:15.711Z,48.03
